South Milford, Indiana
Current Conditions -  °F | °C
As of 12:55 AM on Wednesday 22 Oct 2014 (Local Time) from KANQ Reporting Station
Clear Clear  
Wind Chill: 37°   Ceiling: Unl
Heat Index: 37°   Visibility: 10mi
Dew Point: 18°   Wind: 3mph
Humidity: 45%   Direction: 10°N
Pressure: 30.23"   Gusts: NA
Location:  41.53°N, 85.27°W
Report Text: KANQ 220455Z AUTO 01003KT 10SM CLR 03/M08 A3023 RMK
Loading
Personal Weather Stations






























Interactive Weather Map
Tropical Storm Tracking
New forecast layout! Learn more

10-Day Weather Forecast

Advertisements
Track Severe Weather on mobile